createdAt,value
2022-10-16T00:01:41.563Z,61.40
2022-10-16T00:04:10.737Z,61.59
2022-10-16T00:06:37.957Z,61.22
2022-10-16T00:09:05.443Z,61.68
2022-10-16T00:11:35.401Z,61.92
2022-10-16T00:14:04.664Z,62.10
2022-10-16T00:16:32.667Z,62.02
2022-10-16T00:18:59.797Z,61.50
2022-10-16T00:21:29.685Z,61.92
2022-10-16T00:24:15.080Z,61.78
2022-10-16T00:26:42.436Z,62.63
2022-10-16T00:29:10.260Z,62.36
2022-10-16T00:31:37.759Z,62.50
2022-10-16T00:34:04.968Z,62.42
2022-10-16T00:36:33.273Z,62.80
2022-10-16T00:39:02.318Z,62.51
2022-10-16T00:41:33.095Z,63.08
2022-10-16T00:44:03.136Z,63.19
2022-10-16T00:46:38.335Z,63.25
2022-10-16T00:49:10.814Z,62.73
2022-10-16T00:51:42.313Z,62.74
2022-10-16T00:54:27.049Z,62.68
2022-10-16T00:56:55.675Z,62.61
2022-10-16T00:59:29.892Z,62.89
2022-10-16T01:01:58.646Z,62.90
2022-10-16T01:04:26.774Z,63.49
2022-10-16T01:07:11.951Z,62.96
2022-10-16T01:09:51.865Z,63.53
2022-10-16T01:12:38.594Z,62.99
2022-10-16T01:15:13.087Z,63.13
2022-10-16T01:17:49.380Z,63.17
2022-10-16T01:20:23.800Z,63.45
2022-10-16T01:23:16.092Z,63.67
2022-10-16T01:26:24.568Z,63.60
2022-10-16T01:28:57.279Z,63.68
2022-10-16T01:31:28.655Z,63.47
2022-10-16T01:34:07.109Z,64.12
2022-10-16T01:36:43.253Z,64.20
2022-10-16T01:39:12.598Z,64.14
2022-10-16T01:41:45.734Z,63.96
2022-10-16T01:44:22.875Z,63.83
2022-10-16T01:46:52.939Z,63.81
2022-10-16T01:49:23.414Z,64.27
2022-10-16T01:51:55.371Z,63.85
2022-10-16T01:54:27.665Z,63.70
2022-10-16T01:56:56.814Z,64.19
2022-10-16T01:59:26.779Z,63.83
2022-10-16T02:01:59.962Z,64.16
2022-10-16T02:04:34.845Z,64.16
2022-10-16T02:07:02.291Z,63.87
2022-10-16T02:09:31.754Z,63.90
2022-10-16T02:12:03.725Z,64.20
2022-10-16T02:14:31.891Z,64.42
2022-10-16T02:16:58.902Z,64.29
2022-10-16T02:19:25.941Z,64.56
2022-10-16T02:21:57.700Z,64.79
2022-10-16T02:24:59.980Z,64.52
2022-10-16T02:27:50.868Z,64.48
2022-10-16T02:30:21.545Z,64.38
2022-10-16T02:32:50.621Z,64.91
2022-10-16T02:35:21.417Z,64.44
2022-10-16T02:37:51.088Z,64.48
2022-10-16T02:40:21.513Z,65.23
2022-10-16T02:42:53.913Z,64.30
2022-10-16T02:45:21.584Z,64.62
2022-10-16T02:47:49.110Z,64.74
2022-10-16T02:50:16.812Z,64.97
2022-10-16T02:52:43.931Z,64.96
2022-10-16T02:55:10.988Z,64.63
2022-10-16T02:57:38.337Z,64.82
2022-10-16T03:00:14.545Z,64.55
2022-10-16T03:02:41.628Z,64.36
2022-10-16T03:05:09.962Z,64.95
2022-10-16T03:07:37.341Z,65.04
2022-10-16T03:10:04.741Z,64.79
2022-10-16T03:12:31.884Z,65.14
2022-10-16T03:14:59.548Z,64.68
2022-10-16T03:17:27.270Z,64.57
2022-10-16T03:19:54.413Z,64.64
2022-10-16T03:22:21.567Z,64.96
2022-10-16T03:24:48.549Z,64.97
2022-10-16T03:27:15.699Z,64.93
2022-10-16T03:29:42.863Z,64.52
2022-10-16T03:32:10.023Z,64.61
2022-10-16T03:34:37.136Z,64.91
2022-10-16T03:37:04.283Z,64.64
2022-10-16T03:39:31.522Z,64.66
2022-10-16T03:41:58.545Z,64.76
2022-10-16T03:44:25.687Z,65.15
2022-10-16T03:46:52.697Z,64.93
2022-10-16T03:49:19.767Z,65.62
2022-10-16T03:51:47.208Z,64.88
2022-10-16T03:54:14.271Z,65.00
2022-10-16T03:56:41.414Z,65.50
2022-10-16T03:59:08.443Z,65.69
2022-10-16T04:01:35.701Z,65.54
2022-10-16T04:04:02.804Z,65.63
2022-10-16T04:06:29.759Z,65.37
2022-10-16T04:08:57.330Z,65.73
2022-10-16T04:11:24.397Z,66.23
2022-10-16T04:13:51.415Z,65.84
2022-10-16T04:16:18.483Z,65.62
2022-10-16T04:18:45.586Z,65.72
2022-10-16T04:21:12.839Z,65.69
2022-10-16T04:23:39.935Z,65.67
2022-10-16T04:26:07.035Z,65.48
2022-10-16T04:28:34.220Z,65.58
2022-10-16T04:31:01.526Z,65.54
2022-10-16T04:33:28.614Z,65.04
2022-10-16T04:36:00.524Z,65.28
2022-10-16T04:38:27.647Z,65.08
2022-10-16T04:40:55.080Z,65.99
2022-10-16T04:43:22.704Z,65.80
2022-10-16T04:45:51.718Z,64.98
2022-10-16T04:48:19.597Z,65.44
2022-10-16T04:50:50.507Z,65.59
2022-10-16T04:53:21.320Z,65.05
2022-10-16T04:55:48.479Z,65.39
2022-10-16T04:58:15.677Z,65.24
2022-10-16T05:00:42.960Z,65.30
2022-10-16T05:03:10.213Z,65.56
2022-10-16T05:05:37.901Z,65.61
2022-10-16T05:08:05.179Z,65.62
2022-10-16T05:10:32.381Z,65.52
2022-10-16T05:12:59.545Z,65.39
2022-10-16T05:15:26.586Z,64.75
2022-10-16T05:17:55.103Z,64.58
2022-10-16T05:20:23.210Z,64.90
2022-10-16T05:22:50.404Z,64.41
2022-10-16T05:25:17.510Z,64.37
2022-10-16T05:27:44.734Z,63.89
2022-10-16T05:30:12.626Z,63.63
2022-10-16T05:32:39.826Z,64.08
2022-10-16T05:35:10.139Z,63.72
2022-10-16T05:37:39.683Z,64.21
2022-10-16T05:40:07.331Z,63.05
2022-10-16T05:42:34.442Z,63.06
2022-10-16T05:45:01.810Z,62.85
2022-10-16T05:47:30.238Z,62.90
2022-10-16T05:49:57.320Z,62.84
2022-10-16T05:52:24.445Z,61.88
2022-10-16T05:54:51.477Z,62.00
2022-10-16T05:57:18.454Z,61.93
2022-10-16T05:59:45.484Z,62.01
2022-10-16T06:02:17.616Z,61.05
2022-10-16T06:04:44.629Z,60.76
2022-10-16T06:07:11.990Z,60.46
2022-10-16T06:09:39.013Z,61.14
2022-10-16T06:12:06.164Z,60.64
2022-10-16T06:14:33.446Z,60.37
2022-10-16T06:17:00.573Z,60.10
2022-10-16T06:19:27.716Z,59.16
2022-10-16T06:21:54.756Z,58.40
2022-10-16T06:24:21.986Z,58.13
2022-10-16T06:26:48.975Z,57.48
2022-10-16T06:29:16.173Z,57.84
2022-10-16T06:31:43.187Z,56.87
2022-10-16T06:34:12.486Z,57.45
2022-10-16T06:36:40.076Z,57.34
2022-10-16T06:39:08.390Z,56.07
2022-10-16T06:41:35.675Z,52.82
2022-10-16T06:44:15.481Z,48.13
2022-10-16T06:46:42.481Z,45.67
2022-10-16T06:49:09.452Z,42.58
2022-10-16T06:51:43.264Z,40.57
2022-10-16T06:54:11.179Z,38.28
2022-10-16T06:56:38.689Z,38.67
2022-10-16T06:59:05.898Z,38.71
2022-10-16T07:01:33.756Z,39.39
2022-10-16T07:04:01.558Z,39.53
2022-10-16T07:06:33.350Z,39.74
2022-10-16T07:09:03.505Z,42.03
2022-10-16T07:11:30.660Z,41.62
2022-10-16T07:13:57.755Z,42.33
2022-10-16T07:16:29.883Z,43.14
2022-10-16T07:19:01.254Z,43.48
2022-10-16T07:21:30.939Z,43.83
2022-10-16T07:24:00.429Z,44.62
2022-10-16T07:26:29.535Z,44.17
2022-10-16T07:28:56.792Z,44.19
2022-10-16T07:31:24.405Z,44.47
2022-10-16T07:33:52.006Z,44.80
2022-10-16T07:36:20.694Z,45.34
2022-10-16T07:38:48.502Z,45.05
2022-10-16T07:41:18.607Z,45.09
2022-10-16T07:43:53.643Z,45.51
2022-10-16T07:46:22.752Z,45.07
2022-10-16T07:48:50.137Z,44.18
2022-10-16T07:51:19.900Z,44.47
2022-10-16T07:53:47.998Z,43.75
2022-10-16T07:56:16.225Z,43.48
2022-10-16T07:58:43.448Z,44.01
2022-10-16T08:01:14.265Z,44.57
2022-10-16T08:03:46.474Z,43.49
2022-10-16T08:06:13.575Z,43.30
2022-10-16T08:08:41.474Z,42.13
2022-10-16T08:11:09.205Z,41.08
2022-10-16T08:13:37.088Z,39.28
2022-10-16T08:16:08.973Z,37.12
2022-10-16T08:18:37.787Z,32.77
2022-10-16T08:21:05.842Z,31.11
2022-10-16T08:23:34.440Z,29.23
2022-10-16T08:26:07.432Z,27.96
2022-10-16T08:28:35.116Z,23.97
2022-10-16T08:31:11.114Z,22.71
2022-10-16T08:33:39.237Z,21.90
2022-10-16T08:36:07.216Z,20.17
2022-10-16T08:38:35.387Z,18.82
2022-10-16T08:41:14.642Z,19.16
2022-10-16T08:44:01.784Z,18.10
2022-10-16T08:46:52.610Z,17.14
2022-10-16T08:49:19.920Z,17.40
2022-10-16T08:51:49.445Z,17.06
2022-10-16T08:54:19.414Z,16.33
2022-10-16T08:56:47.218Z,17.06
2022-10-16T08:59:17.338Z,17.83
2022-10-16T09:01:51.033Z,16.84
2022-10-16T09:04:36.544Z,17.59
2022-10-16T09:07:12.667Z,19.55
2022-10-16T09:09:49.057Z,19.45
2022-10-16T09:12:22.638Z,20.78
2022-10-16T09:15:34.014Z,21.60
2022-10-16T09:18:21.352Z,22.75
2022-10-16T09:21:16.953Z,23.99
2022-10-16T09:23:44.751Z,25.28
2022-10-16T09:26:14.780Z,25.54
2022-10-16T09:28:42.637Z,25.25
2022-10-16T09:31:17.641Z,25.30
2022-10-16T09:33:46.563Z,24.86
2022-10-16T09:36:14.801Z,23.75
2022-10-16T09:38:42.021Z,23.01
2022-10-16T09:41:21.500Z,22.44
2022-10-16T09:43:54.896Z,22.39
2022-10-16T09:46:39.277Z,21.77
2022-10-16T09:49:24.471Z,23.66
2022-10-16T09:51:52.393Z,23.30
2022-10-16T09:54:22.062Z,23.94
2022-10-16T09:56:54.897Z,24.23
2022-10-16T09:59:27.809Z,25.91
2022-10-16T10:01:56.334Z,26.25
2022-10-16T10:04:29.668Z,26.44
2022-10-16T10:06:58.114Z,26.58
2022-10-16T10:09:36.443Z,27.04
2022-10-16T10:12:05.124Z,27.49
2022-10-16T10:14:38.632Z,27.27
2022-10-16T10:17:27.121Z,27.46
2022-10-16T10:20:04.676Z,28.50
2022-10-16T10:22:47.926Z,28.67
2022-10-16T10:25:15.469Z,29.14
2022-10-16T10:28:08.759Z,29.01
2022-10-16T10:30:56.332Z,30.14
2022-10-16T10:33:33.402Z,30.15
2022-10-16T10:36:15.788Z,30.98
2022-10-16T10:38:42.812Z,31.11
2022-10-16T10:41:25.422Z,31.01
2022-10-16T10:44:19.392Z,30.95
2022-10-16T10:46:56.812Z,31.16
2022-10-16T10:49:32.779Z,31.77
2022-10-16T10:52:24.967Z,31.75
2022-10-16T10:55:05.021Z,31.37
2022-10-16T10:58:02.687Z,31.30
2022-10-16T11:00:54.925Z,32.25
2022-10-16T11:03:27.654Z,31.71
2022-10-16T11:06:04.231Z,32.03
2022-10-16T11:08:40.927Z,31.99
2022-10-16T11:11:27.038Z,32.39
2022-10-16T11:14:03.019Z,32.79
2022-10-16T11:16:35.648Z,32.04
2022-10-16T11:19:15.880Z,32.15
2022-10-16T11:21:52.964Z,31.76
2022-10-16T11:24:50.243Z,31.59
2022-10-16T11:27:24.719Z,31.26
2022-10-16T11:30:02.842Z,31.62
2022-10-16T11:32:49.245Z,31.71
2022-10-16T11:35:23.726Z,32.12
2022-10-16T11:37:55.088Z,32.54
2022-10-16T11:40:32.006Z,32.39
2022-10-16T11:43:16.224Z,33.07
2022-10-16T11:45:50.687Z,33.31
2022-10-16T11:48:25.651Z,33.65
2022-10-16T11:51:02.764Z,33.70
2022-10-16T11:53:54.667Z,34.35
2022-10-16T11:56:22.848Z,34.84
2022-10-16T11:58:55.787Z,35.54
2022-10-16T12:01:48.898Z,34.97
2022-10-16T12:04:28.678Z,35.37
2022-10-16T12:07:09.959Z,35.31
2022-10-16T12:09:40.090Z,35.35
2022-10-16T12:12:38.436Z,35.45
2022-10-16T12:15:54.231Z,35.37
2022-10-16T12:18:25.845Z,36.49
2022-10-16T12:21:05.596Z,36.94
2022-10-16T12:23:37.588Z,36.62
2022-10-16T12:26:05.640Z,36.47
2022-10-16T12:28:37.524Z,36.45
2022-10-16T12:31:07.351Z,36.55
2022-10-16T12:34:00.898Z,36.76
2022-10-16T12:36:34.841Z,36.73
2022-10-16T12:39:04.369Z,37.02
2022-10-16T12:41:34.711Z,36.88
2022-10-16T12:44:03.683Z,36.91
2022-10-16T12:46:30.753Z,36.74
2022-10-16T12:49:17.624Z,37.11
2022-10-16T12:51:44.613Z,37.83
2022-10-16T12:54:30.549Z,37.35
2022-10-16T12:57:28.950Z,37.35
2022-10-16T13:00:04.700Z,37.57
2022-10-16T13:02:50.599Z,37.69
2022-10-16T13:05:54.752Z,38.52
2022-10-16T13:08:37.042Z,38.84
2022-10-16T13:11:14.999Z,38.99
2022-10-16T13:13:51.083Z,39.22
2022-10-16T13:16:42.108Z,39.48
2022-10-16T13:19:43.775Z,38.76
2022-10-16T13:22:35.234Z,39.47
2022-10-16T13:25:36.885Z,39.02
2022-10-16T13:28:07.624Z,39.34
2022-10-16T13:30:45.576Z,38.99
2022-10-16T13:33:37.466Z,39.15
2022-10-16T13:36:05.900Z,39.21
2022-10-16T13:38:35.205Z,39.23
2022-10-16T13:41:03.457Z,39.19
2022-10-16T13:43:44.513Z,39.86
2022-10-16T13:46:18.975Z,39.98
2022-10-16T13:48:57.071Z,39.84
2022-10-16T13:53:58.145Z,40.03
2022-10-16T13:56:31.580Z,40.29
2022-10-16T13:59:24.053Z,40.42
2022-10-16T14:01:55.403Z,39.86
2022-10-16T14:04:23.293Z,40.32
2022-10-16T14:06:52.302Z,40.40
2022-10-16T14:09:27.775Z,40.29
2022-10-16T14:11:59.498Z,40.91
2022-10-16T14:14:35.519Z,40.75
2022-10-16T14:17:04.472Z,40.74
2022-10-16T14:19:32.518Z,40.98
2022-10-16T14:22:02.659Z,41.16
2022-10-16T14:24:35.213Z,41.18
2022-10-16T14:27:03.694Z,41.78
2022-10-16T14:29:32.611Z,42.26
2022-10-16T14:32:02.753Z,42.18
2022-10-16T14:34:41.522Z,42.78
2022-10-16T14:37:30.193Z,42.29
2022-10-16T14:39:58.121Z,42.38
2022-10-16T14:42:26.898Z,42.10
2022-10-16T14:44:55.923Z,42.76
2022-10-16T14:47:30.936Z,43.22
2022-10-16T14:50:00.181Z,42.80
2022-10-16T14:52:27.275Z,43.18
2022-10-16T14:54:57.674Z,42.80
2022-10-16T14:57:29.229Z,43.06
2022-10-16T14:59:57.696Z,43.24
2022-10-16T15:02:35.240Z,42.91
2022-10-16T15:05:33.271Z,42.31
2022-10-16T15:08:00.388Z,43.49
2022-10-16T15:10:30.182Z,43.67
2022-10-16T15:12:57.388Z,43.73
2022-10-16T15:15:32.211Z,43.91
2022-10-16T15:18:01.629Z,43.81
2022-10-16T15:20:31.521Z,43.94
2022-10-16T15:23:00.911Z,44.07
2022-10-16T15:25:41.968Z,43.87
2022-10-16T15:28:10.510Z,44.19
2022-10-16T15:30:38.574Z,43.75
2022-10-16T15:33:10.691Z,44.22
2022-10-16T15:35:37.635Z,44.17
2022-10-16T15:38:04.825Z,44.23
2022-10-16T15:40:31.866Z,44.25
2022-10-16T15:42:58.864Z,44.66
2022-10-16T15:45:27.426Z,44.37
2022-10-16T15:47:54.335Z,44.57
2022-10-16T15:50:21.455Z,44.42
2022-10-16T15:52:48.586Z,45.28
2022-10-16T15:55:15.895Z,44.92
2022-10-16T15:57:43.890Z,45.41
2022-10-16T16:00:18.923Z,44.95
2022-10-16T16:02:51.897Z,44.93
2022-10-16T16:05:19.615Z,45.09
2022-10-16T16:07:46.771Z,45.81
2022-10-16T16:10:14.193Z,44.99
2022-10-16T16:12:41.569Z,45.87
2022-10-16T16:15:10.236Z,45.29
2022-10-16T16:17:37.803Z,44.71
2022-10-16T16:20:06.175Z,45.22
2022-10-16T16:22:33.283Z,45.09
2022-10-16T16:25:00.407Z,45.18
2022-10-16T16:27:30.094Z,45.32
2022-10-16T16:29:57.626Z,45.16
2022-10-16T16:32:24.696Z,45.10
2022-10-16T16:34:52.138Z,45.24
2022-10-16T16:37:19.320Z,44.72
2022-10-16T16:39:46.359Z,45.43
2022-10-16T16:42:14.588Z,45.38
2022-10-16T16:44:41.919Z,45.88
2022-10-16T16:47:09.049Z,45.50
2022-10-16T16:49:36.188Z,45.71
2022-10-16T16:52:03.436Z,46.31
2022-10-16T16:54:30.515Z,45.43
2022-10-16T16:56:57.692Z,45.94
2022-10-16T16:59:24.842Z,45.99
2022-10-16T17:01:56.664Z,47.00
2022-10-16T17:04:25.937Z,45.89
2022-10-16T17:06:56.776Z,45.84
2022-10-16T17:09:24.374Z,45.96
2022-10-16T17:11:51.560Z,45.98
2022-10-16T17:14:18.723Z,45.80
2022-10-16T17:16:45.967Z,45.70
2022-10-16T17:19:18.819Z,46.35
2022-10-16T17:21:48.799Z,46.00
2022-10-16T17:24:15.977Z,46.13
2022-10-16T17:26:48.900Z,45.93
2022-10-16T17:29:18.572Z,45.70
2022-10-16T17:31:49.958Z,46.12
2022-10-16T17:34:17.078Z,45.92
2022-10-16T17:36:44.323Z,47.22
2022-10-16T17:39:13.926Z,47.08
2022-10-16T17:41:40.993Z,47.07
2022-10-16T17:44:08.748Z,46.72
2022-10-16T17:46:40.030Z,46.33
2022-10-16T17:49:09.688Z,46.36
2022-10-16T17:51:36.970Z,46.63
2022-10-16T17:54:05.358Z,46.89
2022-10-16T17:56:32.399Z,46.62
2022-10-16T17:59:01.991Z,46.25
2022-10-16T18:01:32.353Z,46.23
2022-10-16T18:04:14.651Z,46.33
2022-10-16T18:06:44.113Z,46.80
2022-10-16T18:09:14.657Z,46.62
2022-10-16T18:11:41.845Z,46.56
2022-10-16T18:14:08.983Z,46.33
2022-10-16T18:16:37.051Z,47.00
2022-10-16T18:19:04.314Z,46.55
2022-10-16T18:21:31.721Z,46.65
2022-10-16T18:24:01.462Z,46.99
2022-10-16T18:26:29.540Z,46.74
2022-10-16T18:28:58.097Z,47.66
2022-10-16T18:31:26.720Z,46.72
2022-10-16T18:33:55.818Z,47.42
2022-10-16T18:36:26.775Z,47.17
2022-10-16T18:38:54.219Z,47.06
2022-10-16T18:41:22.454Z,46.66
2022-10-16T18:43:51.281Z,46.76
2022-10-16T18:46:23.543Z,46.86
2022-10-16T18:48:54.530Z,47.07
2022-10-16T18:51:24.471Z,47.09
2022-10-16T18:53:54.300Z,47.27
2022-10-16T18:56:23.532Z,47.30
2022-10-16T18:58:59.306Z,47.79
2022-10-16T19:01:28.953Z,47.21
2022-10-16T19:04:01.834Z,47.99
2022-10-16T19:06:29.695Z,47.57
2022-10-16T19:08:57.673Z,47.22
2022-10-16T19:11:26.180Z,48.07
2022-10-16T19:13:56.592Z,48.54
2022-10-16T19:16:29.313Z,48.05
2022-10-16T19:18:58.333Z,48.39
2022-10-16T19:21:27.221Z,48.35
2022-10-16T19:23:58.616Z,47.65
2022-10-16T19:26:27.011Z,47.68
2022-10-16T19:28:58.488Z,47.81
2022-10-16T19:31:29.411Z,47.91
2022-10-16T19:33:59.829Z,47.70
2022-10-16T19:36:29.878Z,47.76
2022-10-16T19:39:02.790Z,48.14
2022-10-16T19:41:30.939Z,47.80
2022-10-16T19:44:02.911Z,47.75
2022-10-16T19:46:32.194Z,48.13
2022-10-16T19:49:01.858Z,47.99
2022-10-16T19:51:29.824Z,47.60
2022-10-16T19:54:02.040Z,48.27
2022-10-16T19:56:30.499Z,48.16
2022-10-16T19:58:58.743Z,48.22
2022-10-16T20:01:28.391Z,48.55
2022-10-16T20:03:55.818Z,48.52
2022-10-16T20:06:23.298Z,48.28
2022-10-16T20:08:52.356Z,48.13
2022-10-16T20:11:25.064Z,47.72
2022-10-16T20:13:52.318Z,47.59
2022-10-16T20:16:20.417Z,47.50
2022-10-16T20:18:49.687Z,47.51
2022-10-16T20:21:19.895Z,47.32
2022-10-16T20:23:49.245Z,47.27
2022-10-16T20:26:18.033Z,47.67
2022-10-16T20:28:45.279Z,47.87
2022-10-16T20:31:20.826Z,47.49
2022-10-16T20:33:47.970Z,48.45
2022-10-16T20:36:16.246Z,47.78
2022-10-16T20:38:43.359Z,47.76
2022-10-16T20:41:12.018Z,47.87
2022-10-16T20:43:44.609Z,47.45
2022-10-16T20:46:14.843Z,47.53
2022-10-16T20:48:46.939Z,47.29
2022-10-16T20:51:17.202Z,47.11
2022-10-16T20:53:46.649Z,47.30
2022-10-16T20:56:16.172Z,47.73
2022-10-16T20:58:44.737Z,47.29
2022-10-16T21:01:17.512Z,47.39
2022-10-16T21:03:51.065Z,48.15
2022-10-16T21:06:18.170Z,47.60
2022-10-16T21:08:45.191Z,47.64
2022-10-16T21:11:27.744Z,48.26
2022-10-16T21:13:59.126Z,47.60
2022-10-16T21:16:27.108Z,47.50
2022-10-16T21:18:55.024Z,47.82
2022-10-16T21:21:29.967Z,48.42
2022-10-16T21:23:58.229Z,48.08
2022-10-16T21:26:26.652Z,48.47
2022-10-16T21:28:56.650Z,48.36
2022-10-16T21:31:24.102Z,48.34
2022-10-16T21:33:51.453Z,47.89
2022-10-16T21:36:21.528Z,47.82
2022-10-16T21:38:49.127Z,47.85
2022-10-16T21:41:20.990Z,47.90
2022-10-16T21:43:48.667Z,48.18
2022-10-16T21:46:19.955Z,48.27
2022-10-16T21:48:47.576Z,48.20
2022-10-16T21:51:15.171Z,48.38
2022-10-16T21:53:42.301Z,48.20
2022-10-16T21:56:15.109Z,48.27
2022-10-16T21:58:42.439Z,48.37
2022-10-16T22:01:11.908Z,48.72
2022-10-16T22:03:39.082Z,48.62
2022-10-16T22:06:08.089Z,48.74
2022-10-16T22:08:38.173Z,48.37
2022-10-16T22:11:14.072Z,48.41
2022-10-16T22:13:42.110Z,48.52
2022-10-16T22:16:09.724Z,48.38
2022-10-16T22:18:37.937Z,49.17
2022-10-16T22:21:09.533Z,49.13
2022-10-16T22:23:36.940Z,48.89
2022-10-16T22:26:07.358Z,48.62
2022-10-16T22:28:34.720Z,48.80
2022-10-16T22:31:03.685Z,48.92
2022-10-16T22:33:30.885Z,48.67
2022-10-16T22:36:01.088Z,48.79
2022-10-16T22:38:32.446Z,49.14
2022-10-16T22:41:07.989Z,48.82
2022-10-16T22:43:36.861Z,48.84
2022-10-16T22:46:05.807Z,49.28
2022-10-16T22:48:32.873Z,48.80
2022-10-16T22:51:00.315Z,48.88
2022-10-16T22:53:27.482Z,49.16
2022-10-16T22:55:54.539Z,49.13
2022-10-16T22:58:22.234Z,48.79
2022-10-16T23:00:50.061Z,49.00
2022-10-16T23:03:17.649Z,49.18
2022-10-16T23:05:45.465Z,49.28
2022-10-16T23:08:13.243Z,49.14
2022-10-16T23:10:42.752Z,49.88
2022-10-16T23:13:10.723Z,49.00
2022-10-16T23:15:44.804Z,49.22
2022-10-16T23:18:12.448Z,49.11
2022-10-16T23:20:40.942Z,49.53
2022-10-16T23:23:08.563Z,49.16
2022-10-16T23:25:36.917Z,49.27
2022-10-16T23:28:04.603Z,49.21
2022-10-16T23:30:31.641Z,49.61
2022-10-16T23:32:58.778Z,49.39
2022-10-16T23:35:25.917Z,49.09
2022-10-16T23:37:59.786Z,49.54
2022-10-16T23:40:30.053Z,49.37
2022-10-16T23:42:57.100Z,49.25
2022-10-16T23:45:24.236Z,49.14
2022-10-16T23:47:51.413Z,49.51
2022-10-16T23:50:18.506Z,49.36
2022-10-16T23:52:45.508Z,49.38
2022-10-16T23:55:12.658Z,49.27
2022-10-16T23:57:39.710Z,49.39
